createdAt,value
2023-03-23T16:00:19.458Z,3.47
2023-03-23T16:03:27.474Z,4.30
2023-03-23T16:06:32.751Z,3.13
2023-03-23T16:09:34.136Z,1.97
2023-03-23T16:12:35.594Z,4.33
2023-03-23T16:15:37.071Z,3.70
2023-03-23T16:18:38.499Z,4.70
2023-03-23T16:21:41.317Z,2.53
2023-03-23T16:24:42.707Z,4.03
2023-03-23T16:27:48.860Z,2.77
2023-03-23T16:30:51.900Z,5.83
2023-03-23T16:33:53.369Z,2.90
2023-03-23T16:36:54.742Z,2.50
2023-03-23T16:39:57.551Z,3.70
2023-03-23T16:42:59.359Z,3.40
2023-03-23T16:46:00.911Z,2.93
2023-03-23T16:49:02.318Z,4.53
2023-03-23T16:52:03.833Z,3.13
2023-03-23T16:55:06.741Z,5.73
2023-03-23T17:01:13.490Z,6.17
2023-03-23T17:04:15.610Z,3.70
2023-03-23T17:07:17.225Z,3.20
2023-03-23T17:10:18.893Z,2.50
2023-03-23T17:13:20.408Z,4.33
2023-03-23T17:16:21.825Z,5.10
2023-03-23T17:19:23.321Z,5.00
2023-03-23T17:22:25.697Z,5.30
2023-03-23T17:25:28.182Z,5.50
2023-03-23T17:28:29.608Z,5.03
2023-03-23T17:31:31.110Z,8.00
2023-03-23T17:34:32.602Z,5.17
2023-03-23T17:37:36.262Z,4.50
2023-03-23T17:40:37.768Z,4.17
2023-03-23T17:43:42.534Z,5.17
2023-03-23T17:46:45.410Z,7.27
2023-03-23T17:49:47.713Z,5.13
2023-03-23T17:52:49.850Z,5.93
2023-03-23T17:55:52.739Z,6.50
2023-03-23T17:58:54.507Z,6.07
2023-03-23T18:01:55.960Z,6.60
2023-03-23T18:04:58.139Z,7.23
2023-03-23T18:07:59.535Z,5.50
2023-03-23T18:11:01.276Z,7.23
2023-03-23T18:14:03.043Z,5.83
2023-03-23T18:17:05.291Z,7.17
2023-03-23T18:20:08.608Z,5.37
2023-03-23T18:23:10.795Z,8.47
2023-03-23T18:26:13.826Z,6.00
2023-03-23T18:29:15.314Z,5.93
2023-03-23T18:32:16.936Z,5.23
2023-03-23T18:35:18.582Z,6.57
2023-03-23T18:38:19.994Z,6.80
2023-03-23T18:41:21.425Z,4.30
2023-03-23T18:44:22.894Z,5.97
2023-03-23T18:47:24.368Z,5.90
2023-03-23T18:50:25.764Z,8.93
2023-03-23T18:53:28.189Z,7.93
2023-03-23T18:56:29.708Z,17.93
2023-03-23T18:59:33.719Z,14.53
2023-03-23T19:02:36.050Z,13.07
2023-03-23T19:05:39.493Z,18.47
2023-03-23T19:08:41.050Z,11.27
2023-03-23T19:11:47.204Z,12.43
2023-03-23T19:14:48.688Z,9.73
2023-03-23T19:17:55.792Z,10.17
2023-03-23T19:24:03.364Z,8.00
2023-03-23T19:27:05.642Z,6.37
2023-03-23T19:30:07.987Z,6.33
2023-03-23T19:33:09.451Z,6.30
2023-03-23T19:36:13.203Z,6.37
2023-03-23T19:39:15.216Z,4.57
2023-03-23T19:42:18.446Z,4.90
2023-03-23T19:45:20.276Z,3.63
2023-03-23T19:48:21.686Z,6.10
2023-03-23T19:51:23.546Z,5.03
2023-03-23T19:54:25.156Z,4.47
2023-03-23T19:57:26.850Z,6.13
2023-03-23T20:00:28.817Z,4.87
2023-03-23T20:03:30.194Z,5.53
2023-03-23T20:06:31.784Z,4.20
2023-03-23T20:09:33.334Z,5.13
2023-03-23T20:12:34.834Z,5.20
2023-03-23T20:15:36.922Z,5.20
2023-03-23T20:18:38.617Z,5.50
2023-03-23T20:21:40.272Z,4.13
2023-03-23T20:24:42.168Z,4.37
2023-03-23T20:27:45.330Z,4.17
2023-03-23T20:30:47.114Z,5.63
2023-03-23T20:34:12.866Z,5.33
2023-03-23T20:37:16.279Z,3.67
2023-03-23T20:40:18.556Z,3.47
2023-03-23T20:43:19.975Z,4.67
2023-03-23T20:46:22.019Z,5.20
2023-03-23T20:49:24.739Z,4.90
2023-03-23T20:52:26.258Z,5.10
2023-03-23T20:55:27.660Z,6.97
2023-03-23T20:58:29.788Z,5.53
2023-03-23T21:01:33.108Z,7.50
2023-03-23T21:04:37.102Z,5.60
2023-03-23T21:07:39.193Z,4.00
2023-03-23T21:10:40.930Z,4.47
2023-03-23T21:13:42.603Z,4.90
2023-03-23T21:16:44.127Z,5.37
2023-03-23T21:19:46.971Z,4.90
2023-03-23T21:22:48.374Z,6.23
2023-03-23T21:25:50.334Z,6.90
2023-03-23T21:28:54.008Z,7.53
2023-03-23T21:32:07.787Z,5.07
2023-03-23T21:35:10.179Z,6.83
2023-03-23T21:38:14.268Z,5.53
2023-03-23T21:41:15.907Z,6.03
2023-03-23T21:44:18.073Z,7.13
2023-03-23T21:47:19.502Z,7.03
2023-03-23T21:50:21.925Z,6.27
2023-03-23T21:53:25.342Z,5.87
2023-03-23T21:56:27.896Z,6.80
2023-03-23T21:59:29.354Z,9.27
2023-03-23T22:02:30.926Z,6.57
2023-03-23T22:05:32.375Z,6.60
2023-03-23T22:08:33.774Z,5.83
2023-03-23T22:11:37.272Z,5.57
2023-03-23T22:14:39.127Z,5.70
2023-03-23T22:17:41.121Z,4.87
2023-03-23T22:20:42.513Z,4.30
2023-03-23T22:23:45.257Z,4.93
2023-03-23T22:26:47.016Z,4.90
2023-03-23T22:29:48.420Z,3.87
2023-03-23T22:32:49.891Z,5.00
2023-03-23T22:35:51.343Z,4.03
2023-03-23T22:38:54.890Z,3.83
2023-03-23T22:41:56.470Z,3.20
2023-03-23T22:44:57.879Z,5.17
2023-03-23T22:47:59.741Z,3.17
2023-03-23T22:51:01.398Z,4.27
2023-03-23T22:54:04.258Z,3.80
2023-03-23T22:57:05.891Z,3.60
2023-03-23T23:00:14.008Z,4.83
2023-03-23T23:03:16.502Z,4.10
2023-03-23T23:06:19.118Z,3.33
2023-03-23T23:09:22.048Z,4.93
2023-03-23T23:12:24.150Z,5.37
2023-03-23T23:15:26.266Z,3.83
2023-03-23T23:18:28.072Z,5.67
2023-03-23T23:21:29.514Z,6.67
2023-03-23T23:24:31.141Z,11.13
2023-03-23T23:27:33.241Z,3.87
2023-03-23T23:30:35.012Z,2.87
2023-03-23T23:33:36.441Z,3.87
2023-03-23T23:36:38.323Z,4.03
2023-03-23T23:39:41.215Z,3.63
2023-03-23T23:42:44.492Z,5.00
2023-03-23T23:45:45.967Z,4.73
2023-03-23T23:48:47.414Z,3.73
2023-03-23T23:51:48.877Z,3.67
2023-03-23T23:54:51.404Z,5.23
2023-03-23T23:57:53.376Z,3.43
